Time;durP1;ratioP1;P1;durP2;ratioP2;P2;SDS_P1;SDS_P2;PMS_P1;PMS_P2;Temp;Humidity;BMP_temperature;BMP_pressure;BME280_temperature;BME280_humidity;BME280_pressure;Samples;Min_cycle;Max_cycle;Signal;HPM_P1;HPM_P2
2021/10/14 00:00:34;;;;;;;8.45;6.80;;;12.30;99.90;;;;;;5023507;28;20037;-67
2021/10/14 00:03:00;;;;;;;10.43;7.68;;;12.40;99.90;;;;;;5025973;28;20051;-67
2021/10/14 00:05:25;;;;;;;10.18;7.18;;;12.40;99.90;;;;;;5026921;28;20045;-67
2021/10/14 00:07:51;;;;;;;12.77;8.75;;;12.30;99.90;;;;;;5023323;28;20048;-67
2021/10/14 00:10:17;;;;;;;14.15;8.32;;;12.40;99.90;;;;;;5024092;28;20041;-67
2021/10/14 00:12:42;;;;;;;12.00;7.45;;;12.40;99.90;;;;;;5023773;28;20030;-67
2021/10/14 00:15:09;;;;;;;16.75;9.65;;;12.30;99.90;;;;;;5022530;28;20059;-67
2021/10/14 00:17:34;;;;;;;12.02;8.27;;;12.30;99.90;;;;;;5024509;28;20038;-67
2021/10/14 00:20:00;;;;;;;15.95;8.77;;;12.40;99.90;;;;;;5040894;28;20050;-67
2021/10/14 00:22:26;;;;;;;11.07;7.78;;;12.30;99.90;;;;;;5021468;28;20041;-67
2021/10/14 00:24:52;;;;;;;11.00;8.10;;;12.30;99.90;;;;;;5023305;28;20037;-67
2021/10/14 00:27:18;;;;;;;17.10;10.73;;;12.30;99.90;;;;;;5022130;28;20052;-67
2021/10/14 00:29:43;;;;;;;14.63;8.05;;;12.30;99.90;;;;;;5024265;28;20037;-67
2021/10/14 00:32:09;;;;;;;14.25;8.38;;;12.30;99.90;;;;;;5021113;28;20128;-67
2021/10/14 00:34:34;;;;;;;12.10;7.80;;;12.30;99.90;;;;;;5021596;28;20490;-67
2021/10/14 00:37:00;;;;;;;14.73;9.25;;;12.40;99.90;;;;;;5023208;28;20124;-67
2021/10/14 00:39:26;;;;;;;12.35;8.48;;;12.30;99.90;;;;;;5025141;28;20044;-67
2021/10/14 00:41:51;;;;;;;12.55;7.97;;;12.40;99.90;;;;;;5023214;28;20075;-67
2021/10/14 00:44:17;;;;;;;11.20;7.95;;;12.30;99.90;;;;;;5025821;28;20048;-67
2021/10/14 00:46:52;;;;;;;13.07;8.38;;;12.30;99.90;;;;;;5024830;28;20679;-67
2021/10/14 00:49:17;;;;;;;15.00;7.70;;;12.40;99.90;;;;;;5023973;28;20049;-67
2021/10/14 00:51:43;;;;;;;15.15;8.43;;;12.40;99.90;;;;;;5022489;28;20083;-67
2021/10/14 00:54:10;;;;;;;14.52;8.55;;;12.40;99.90;;;;;;5003198;28;20041;-67
2021/10/14 00:56:36;;;;;;;10.88;8.15;;;12.40;99.90;;;;;;5022560;28;20625;-67
2021/10/14 00:59:02;;;;;;;13.23;8.77;;;12.40;99.90;;;;;;5021444;28;20048;-67
2021/10/14 01:01:27;;;;;;;14.88;9.23;;;12.40;99.90;;;;;;5022680;28;20445;-67
2021/10/14 01:03:53;;;;;;;14.15;9.38;;;12.30;99.90;;;;;;5023453;28;20041;-67
2021/10/14 01:06:19;;;;;;;13.68;8.93;;;12.40;99.90;;;;;;5020280;28;20050;-67
2021/10/14 01:08:45;;;;;;;11.27;8.65;;;12.30;99.90;;;;;;5006585;28;20034;-67
2021/10/14 01:11:11;;;;;;;14.20;8.55;;;12.30;99.90;;;;;;5023830;28;20037;-66
2021/10/14 01:13:37;;;;;;;14.10;8.57;;;12.20;99.90;;;;;;5025078;28;20037;-67
2021/10/14 01:16:04;;;;;;;10.88;7.63;;;12.30;99.90;;;;;;5022345;28;20392;-67
2021/10/14 01:18:29;;;;;;;11.23;7.50;;;12.30;99.90;;;;;;5025579;28;20369;-66
2021/10/14 01:20:55;;;;;;;11.27;7.68;;;12.20;99.90;;;;;;5021152;28;20029;-66
2021/10/14 01:23:21;;;;;;;11.73;7.63;;;12.20;99.90;;;;;;5024174;28;20044;-66
2021/10/14 01:25:46;;;;;;;12.32;9.15;;;12.20;99.90;;;;;;5021668;28;20050;-67
2021/10/14 01:28:13;;;;;;;12.02;8.60;;;12.20;99.90;;;;;;5022386;28;20065;-66
2021/10/14 01:30:38;;;;;;;13.38;8.30;;;12.10;99.90;;;;;;5024503;28;20120;-67
2021/10/14 01:33:04;;;;;;;16.88;6.93;;;12.10;99.90;;;;;;5021187;28;20114;-68
2021/10/14 01:35:29;;;;;;;11.57;7.57;;;12.20;99.90;;;;;;5021533;28;20107;-67
2021/10/14 01:37:55;;;;;;;11.27;7.68;;;12.10;99.90;;;;;;5023820;28;20530;-67
2021/10/14 01:40:21;;;;;;;10.65;7.60;;;12.20;99.90;;;;;;5038790;28;20041;-67
2021/10/14 01:42:46;;;;;;;15.98;8.10;;;12.20;99.90;;;;;;5023091;28;20044;-66
2021/10/14 01:45:12;;;;;;;12.13;8.93;;;12.20;99.90;;;;;;5022788;28;20033;-67
2021/10/14 01:47:38;;;;;;;14.93;7.47;;;12.20;99.90;;;;;;5023364;28;20049;-67
2021/10/14 01:50:05;;;;;;;11.77;7.85;;;12.20;99.90;;;;;;5023152;28;20048;-66
2021/10/14 01:52:31;;;;;;;12.48;7.68;;;12.20;99.90;;;;;;5021812;28;20033;-66
2021/10/14 01:54:56;;;;;;;15.07;7.78;;;12.20;99.90;;;;;;5021460;28;20703;-67
2021/10/14 01:57:22;;;;;;;12.63;6.60;;;12.20;99.90;;;;;;5019439;28;20512;-66
2021/10/14 01:59:48;;;;;;;12.77;7.57;;;12.20;99.90;;;;;;5020656;28;20073;-67
2021/10/14 02:02:13;;;;;;;12.68;7.53;;;12.30;99.90;;;;;;5022029;28;20080;-67
2021/10/14 02:04:39;;;;;;;10.32;6.78;;;12.20;99.90;;;;;;5019559;28;20091;-66
2021/10/14 02:07:04;;;;;;;14.02;7.18;;;12.20;99.90;;;;;;5020534;28;20551;-67
2021/10/14 02:09:30;;;;;;;11.90;6.70;;;12.20;99.90;;;;;;5023173;28;20038;-67
2021/10/14 02:11:56;;;;;;;11.25;6.70;;;12.30;99.90;;;;;;5019978;28;20113;-66
2021/10/14 02:14:21;;;;;;;12.80;6.90;;;12.30;99.90;;;;;;5025169;28;20137;-67
2021/10/14 02:16:47;;;;;;;12.52;7.25;;;12.30;99.90;;;;;;5024614;28;21488;-66
2021/10/14 02:19:13;;;;;;;13.95;6.45;;;12.30;99.90;;;;;;5023304;28;20048;-66
2021/10/14 02:21:39;;;;;;;11.93;6.53;;;12.30;99.90;;;;;;5021888;28;20045;-66
2021/10/14 02:24:05;;;;;;;14.65;5.85;;;12.30;99.90;;;;;;5021239;28;20128;-67
2021/10/14 02:26:30;;;;;;;12.82;6.25;;;12.30;99.90;;;;;;5019318;28;20124;-67
2021/10/14 02:28:58;;;;;;;15.82;6.38;;;12.30;99.90;;;;;;5027504;28;20067;-67
2021/10/14 02:31:23;;;;;;;11.60;6.15;;;12.40;99.90;;;;;;5025060;28;20124;-67
2021/10/14 02:33:49;;;;;;;9.65;4.93;;;12.40;99.90;;;;;;5025453;28;20030;-67
2021/10/14 02:36:15;;;;;;;11.52;4.53;;;12.40;99.90;;;;;;5023704;28;20041;-67
2021/10/14 02:38:41;;;;;;;11.43;4.43;;;12.40;99.90;;;;;;5026141;28;20041;-67
2021/10/14 02:41:06;;;;;;;6.75;3.75;;;12.50;99.90;;;;;;5025423;28;20373;-67
2021/10/14 02:43:32;;;;;;;7.57;3.78;;;12.50;99.90;;;;;;5025020;28;20037;-67
2021/10/14 02:45:58;;;;;;;7.32;3.60;;;12.50;99.90;;;;;;5028679;28;20041;-67
2021/10/14 02:48:24;;;;;;;7.55;3.67;;;12.60;99.90;;;;;;5027168;28;20037;-67
2021/10/14 02:50:49;;;;;;;5.80;4.20;;;12.50;99.90;;;;;;5007594;28;20840;-67
2021/10/14 02:53:15;;;;;;;10.15;3.70;;;12.50;99.90;;;;;;5025645;28;20716;-67
2021/10/14 02:55:40;;;;;;;5.53;3.10;;;12.50;99.90;;;;;;5022812;28;20043;-67
2021/10/14 02:58:06;;;;;;;6.72;3.25;;;12.40;99.90;;;;;;5025543;28;20072;-67
2021/10/14 03:00:31;;;;;;;7.82;2.97;;;12.40;99.90;;;;;;5026769;28;20049;-67
2021/10/14 03:02:57;;;;;;;7.28;3.08;;;12.40;99.90;;;;;;5024887;28;20042;-67
2021/10/14 03:05:23;;;;;;;7.47;2.30;;;12.50;99.90;;;;;;5025660;28;20042;-67
2021/10/14 03:07:48;;;;;;;8.23;2.78;;;12.40;99.90;;;;;;5025411;28;20032;-67
2021/10/14 03:10:14;;;;;;;4.78;2.25;;;12.40;99.90;;;;;;5025128;28;20042;-67
2021/10/14 03:12:39;;;;;;;6.07;2.30;;;12.40;99.90;;;;;;5028183;28;20025;-67
2021/10/14 03:15:06;;;;;;;7.53;3.08;;;12.40;99.90;;;;;;5027090;28;20041;-67
2021/10/14 03:17:31;;;;;;;7.32;3.03;;;12.50;99.90;;;;;;5028526;28;20557;-67
2021/10/14 03:19:57;;;;;;;2.63;2.20;;;12.40;99.90;;;;;;5025885;28;20045;-67
2021/10/14 03:22:22;;;;;;;4.13;2.33;;;12.40;99.90;;;;;;5027570;28;20059;-67
2021/10/14 03:24:48;;;;;;;3.97;2.70;;;12.50;99.90;;;;;;5025927;28;20523;-67
2021/10/14 03:27:14;;;;;;;7.80;2.40;;;12.50;99.90;;;;;;5021346;28;20042;-67
2021/10/14 03:29:39;;;;;;;4.22;2.65;;;12.50;99.90;;;;;;5025539;28;20041;-67
2021/10/14 03:32:05;;;;;;;4.13;2.10;;;12.50;99.90;;;;;;5025334;28;20042;-66
2021/10/14 03:34:31;;;;;;;5.95;2.40;;;12.50;99.90;;;;;;5030602;28;20033;-67
2021/10/14 03:36:56;;;;;;;4.65;2.28;;;12.50;99.90;;;;;;5030465;28;20136;-67
2021/10/14 03:39:22;;;;;;;8.20;2.97;;;12.40;99.90;;;;;;5029638;28;20037;-67
2021/10/14 03:41:47;;;;;;;4.43;2.58;;;12.50;99.90;;;;;;5030465;28;20049;-67
2021/10/14 03:44:14;;;;;;;5.57;2.85;;;12.50;99.90;;;;;;5029712;28;20121;-67
2021/10/14 03:46:40;;;;;;;4.70;3.30;;;12.50;99.90;;;;;;5031488;28;20826;-67
2021/10/14 03:49:06;;;;;;;7.88;4.20;;;12.50;99.90;;;;;;5031528;28;20048;-67
2021/10/14 03:51:32;;;;;;;9.60;4.50;;;12.50;99.90;;;;;;5029857;28;20046;-67
2021/10/14 03:53:58;;;;;;;13.48;4.85;;;12.50;99.90;;;;;;5028487;28;20042;-67
2021/10/14 03:56:24;;;;;;;10.20;6.57;;;12.50;99.90;;;;;;5023411;28;20139;-67
2021/10/14 03:58:49;;;;;;;12.07;5.85;;;12.60;99.90;;;;;;5025247;28;20045;-67
2021/10/14 04:01:16;;;;;;;8.77;6.22;;;12.60;99.90;;;;;;5033268;28;20395;-67
2021/10/14 04:03:42;;;;;;;10.88;7.05;;;12.60;99.90;;;;;;5029965;28;20127;-67
2021/10/14 04:06:07;;;;;;;9.57;6.00;;;12.60;99.90;;;;;;5029288;28;20548;-67
2021/10/14 04:08:33;;;;;;;9.95;7.55;;;12.60;99.90;;;;;;5031751;28;20071;-67
2021/10/14 04:10:59;;;;;;;12.63;8.95;;;12.60;99.90;;;;;;5028328;28;20112;-67
2021/10/14 04:13:24;;;;;;;14.60;7.60;;;12.70;99.90;;;;;;5029552;28;20067;-67
2021/10/14 04:15:50;;;;;;;11.63;7.80;;;12.60;99.90;;;;;;5027675;28;20056;-67
2021/10/14 04:18:15;;;;;;;9.90;8.18;;;12.60;99.90;;;;;;5027543;28;20045;-67
2021/10/14 04:20:41;;;;;;;16.05;8.35;;;12.60;99.90;;;;;;5027542;28;20041;-67
2021/10/14 04:23:07;;;;;;;11.57;8.48;;;12.70;99.90;;;;;;5024600;28;20188;-67
2021/10/14 04:25:33;;;;;;;15.90;9.07;;;12.60;99.90;;;;;;5027877;28;20037;-67
2021/10/14 04:27:58;;;;;;;13.05;9.48;;;12.70;99.90;;;;;;5026965;28;20504;-67
2021/10/14 04:30:24;;;;;;;15.65;8.77;;;12.70;99.90;;;;;;5027786;28;20483;-67
2021/10/14 04:32:50;;;;;;;13.82;10.00;;;12.70;99.90;;;;;;5028557;28;20050;-67
2021/10/14 04:35:16;;;;;;;18.52;11.63;;;12.70;99.90;;;;;;5024328;28;20124;-67
2021/10/14 04:37:43;;;;;;;17.95;11.13;;;12.70;99.90;;;;;;5028889;28;20029;-67
2021/10/14 04:40:10;;;;;;;17.92;10.68;;;12.70;99.90;;;;;;5025976;28;20053;-67
2021/10/14 04:42:36;;;;;;;19.20;11.35;;;12.80;99.90;;;;;;5027834;28;20167;-67
2021/10/14 04:45:03;;;;;;;18.65;12.63;;;12.80;99.90;;;;;;5028011;28;20124;-66
2021/10/14 04:47:28;;;;;;;14.02;10.80;;;12.80;99.90;;;;;;5029178;28;20052;-67
2021/10/14 04:49:54;;;;;;;15.68;12.15;;;12.70;99.90;;;;;;5028465;28;20436;-67
2021/10/14 04:52:19;;;;;;;17.00;12.57;;;12.80;99.90;;;;;;5028780;28;20171;-67
2021/10/14 04:54:45;;;;;;;23.08;13.27;;;12.80;99.90;;;;;;5024426;28;20119;-66
2021/10/14 04:57:10;;;;;;;19.48;11.95;;;12.80;99.90;;;;;;5027269;28;20048;-67
2021/10/14 04:59:36;;;;;;;22.98;13.80;;;12.80;99.90;;;;;;5029327;28;20068;-67
2021/10/14 05:02:03;;;;;;;23.90;12.85;;;12.80;99.90;;;;;;5029196;28;20049;-67
2021/10/14 05:04:28;;;;;;;14.88;10.25;;;12.80;99.90;;;;;;5028424;28;20037;-67
2021/10/14 05:06:54;;;;;;;19.45;11.85;;;12.80;99.90;;;;;;5029832;28;20479;-67
2021/10/14 05:09:19;;;;;;;14.27;9.65;;;12.80;99.90;;;;;;5028866;28;20395;-67
2021/10/14 05:11:45;;;;;;;16.25;10.73;;;12.80;99.90;;;;;;5025421;28;20045;-68
2021/10/14 05:14:10;;;;;;;17.60;10.57;;;12.70;99.90;;;;;;5023976;28;20033;-67
2021/10/14 05:16:36;;;;;;;15.30;11.90;;;12.80;99.90;;;;;;5030729;28;20091;-68
2021/10/14 05:19:02;;;;;;;16.60;12.27;;;12.80;99.90;;;;;;5022569;28;20038;-67
2021/10/14 05:21:29;;;;;;;18.00;11.70;;;12.80;99.90;;;;;;5025286;28;20041;-67
2021/10/14 05:23:59;;;;;;;15.63;11.45;;;12.70;99.90;;;;;;5025020;28;20052;-67
2021/10/14 05:26:26;;;;;;;19.30;12.23;;;12.70;99.90;;;;;;5024360;28;20038;-67
2021/10/14 05:28:52;;;;;;;17.95;11.50;;;12.80;99.90;;;;;;5020505;28;20388;-67
2021/10/14 05:31:18;;;;;;;25.88;14.50;;;12.80;99.90;;;;;;5023138;28;20527;-67
2021/10/14 05:33:44;;;;;;;18.65;12.77;;;12.80;99.90;;;;;;5020259;28;20033;-67
2021/10/14 05:36:09;;;;;;;23.92;13.18;;;12.80;99.90;;;;;;5021445;28;20038;-67
2021/10/14 05:38:35;;;;;;;19.95;12.38;;;12.80;99.90;;;;;;5019213;28;20045;-67
2021/10/14 05:41:00;;;;;;;19.65;12.50;;;12.80;99.90;;;;;;5019985;28;20081;-67
2021/10/14 05:43:26;;;;;;;16.58;12.02;;;12.80;99.90;;;;;;5022418;28;20045;-67
2021/10/14 05:45:53;;;;;;;17.10;12.63;;;12.80;99.90;;;;;;5021620;28;20048;-67
2021/10/14 05:48:19;;;;;;;22.52;13.55;;;12.80;99.90;;;;;;5019674;28;20164;-67
2021/10/14 05:50:44;;;;;;;23.92;13.07;;;12.80;99.90;;;;;;5021839;28;20497;-67
2021/10/14 05:53:10;;;;;;;18.92;12.65;;;12.80;99.90;;;;;;5003490;28;20048;-67
2021/10/14 05:55:36;;;;;;;19.88;13.05;;;12.80;99.90;;;;;;5020184;28;20426;-67
2021/10/14 05:58:01;;;;;;;20.38;12.00;;;12.80;99.90;;;;;;5021388;28;20033;-67
2021/10/14 06:00:27;;;;;;;18.00;11.15;;;12.80;99.90;;;;;;5028899;28;20491;-67
2021/10/14 06:02:52;;;;;;;20.58;12.25;;;12.80;99.90;;;;;;5019639;28;20042;-67
2021/10/14 06:05:18;;;;;;;22.02;12.10;;;12.80;99.90;;;;;;5023794;28;20087;-67
2021/10/14 06:07:44;;;;;;;24.67;12.43;;;12.80;99.90;;;;;;5022134;28;20396;-67
2021/10/14 06:10:09;;;;;;;26.67;14.05;;;12.80;99.90;;;;;;5021494;28;20530;-66
2021/10/14 06:12:37;;;;;;;21.67;11.98;;;12.80;99.90;;;;;;5021305;28;20044;-67
2021/10/14 06:15:03;;;;;;;23.23;12.18;;;12.80;99.90;;;;;;5019575;28;20044;-67
2021/10/14 06:17:28;;;;;;;19.17;12.27;;;12.80;99.90;;;;;;5034945;28;20442;-68
2021/10/14 06:19:54;;;;;;;19.90;11.73;;;12.80;99.90;;;;;;5017943;28;20053;-67
2021/10/14 06:22:20;;;;;;;20.98;12.68;;;12.80;99.90;;;;;;5019915;28;20045;-67
2021/10/14 06:24:45;;;;;;;20.50;12.07;;;12.80;99.90;;;;;;5019294;28;20063;-67
2021/10/14 06:27:11;;;;;;;18.60;12.85;;;12.80;99.90;;;;;;5021210;28;20033;-68
2021/10/14 06:29:36;;;;;;;25.08;13.63;;;12.80;99.90;;;;;;5018865;28;20472;-67
2021/10/14 06:32:02;;;;;;;26.42;13.75;;;12.90;99.90;;;;;;5017966;28;20038;-67
2021/10/14 06:34:28;;;;;;;16.38;13.10;;;12.80;99.90;;;;;;5017886;28;20046;-67
2021/10/14 06:36:53;;;;;;;25.13;14.43;;;12.90;99.90;;;;;;5039234;28;20037;-67
2021/10/14 06:39:19;;;;;;;24.10;13.77;;;12.90;99.90;;;;;;5036751;28;20088;-67
2021/10/14 06:41:45;;;;;;;22.50;13.43;;;12.90;99.90;;;;;;5023449;28;20443;-67
2021/10/14 06:44:11;;;;;;;19.55;12.77;;;12.90;99.90;;;;;;5034992;28;20415;-67
2021/10/14 06:46:38;;;;;;;17.88;11.30;;;12.90;99.90;;;;;;5017830;28;20107;-67
2021/10/14 06:49:04;;;;;;;22.95;12.85;;;12.90;99.90;;;;;;5036566;28;20049;-67
2021/10/14 06:51:30;;;;;;;21.52;10.80;;;12.90;99.90;;;;;;5020008;28;20040;-67
2021/10/14 06:53:56;;;;;;;16.60;9.27;;;12.90;99.90;;;;;;5020367;28;20037;-67
2021/10/14 06:56:22;;;;;;;24.60;8.95;;;12.90;99.90;;;;;;5022252;28;20060;-67
2021/10/14 06:58:47;;;;;;;17.25;9.35;;;12.90;99.90;;;;;;5018432;28;20045;-67
2021/10/14 07:01:15;;;;;;;14.55;9.23;;;12.90;99.90;;;;;;5000618;28;20396;-67
2021/10/14 07:03:40;;;;;;;15.50;9.05;;;12.90;99.90;;;;;;5018273;28;20045;-66
2021/10/14 07:06:06;;;;;;;15.05;9.20;;;12.90;99.90;;;;;;5018343;28;20057;-67
2021/10/14 07:08:32;;;;;;;15.45;8.48;;;12.90;99.90;;;;;;5020648;28;20061;-67
2021/10/14 07:10:57;;;;;;;12.30;7.25;;;12.90;99.90;;;;;;5020634;28;20876;-67
2021/10/14 07:13:23;;;;;;;14.63;7.57;;;12.80;99.90;;;;;;5024356;28;20034;-67
2021/10/14 07:15:50;;;;;;;10.80;7.10;;;12.80;99.90;;;;;;5024059;28;20148;-67
2021/10/14 07:18:16;;;;;;;8.02;5.93;;;12.90;99.90;;;;;;5022982;28;20030;-67
2021/10/14 07:20:41;;;;;;;14.90;6.57;;;12.80;99.90;;;;;;5020729;28;20554;-66
2021/10/14 07:23:10;;;;;;;12.13;6.82;;;12.80;99.90;;;;;;5041152;28;20084;-67
2021/10/14 07:25:37;;;;;;;9.45;6.20;;;12.80;99.90;;;;;;5022768;28;20037;-67
2021/10/14 07:28:03;;;;;;;12.02;6.72;;;12.80;99.90;;;;;;5020757;28;20767;-67
2021/10/14 07:30:28;;;;;;;13.02;6.30;;;12.80;99.90;;;;;;5022199;28;20041;-67
2021/10/14 07:32:54;;;;;;;8.75;6.10;;;12.80;99.90;;;;;;5022363;28;20142;-67
2021/10/14 07:35:20;;;;;;;11.43;6.10;;;12.80;99.90;;;;;;5024712;28;20037;-67
2021/10/14 07:37:46;;;;;;;9.98;6.05;;;12.80;99.90;;;;;;5024017;28;20059;-67
2021/10/14 07:40:12;;;;;;;8.05;5.63;;;12.90;99.90;;;;;;5022303;28;20128;-67
2021/10/14 07:42:38;;;;;;;14.10;5.95;;;12.90;99.90;;;;;;5027852;28;20169;-67
2021/10/14 07:45:04;;;;;;;13.98;6.22;;;12.80;99.90;;;;;;5022266;28;20041;-67
2021/10/14 07:47:30;;;;;;;7.55;5.80;;;12.90;99.90;;;;;;5003201;28;20045;-67
2021/10/14 07:49:55;;;;;;;12.68;5.30;;;12.90;99.90;;;;;;5016622;28;20432;-67
2021/10/14 07:52:21;;;;;;;11.15;6.30;;;12.90;99.90;;;;;;5021603;28;20038;-67
2021/10/14 07:54:47;;;;;;;13.70;5.95;;;12.90;99.90;;;;;;5022415;28;20488;-67
2021/10/14 07:57:15;;;;;;;15.82;6.10;;;12.90;99.90;;;;;;5023144;28;20045;-67
2021/10/14 07:59:41;;;;;;;12.52;5.43;;;13.00;99.90;;;;;;5019047;28;20630;-67
2021/10/14 08:02:07;;;;;;;9.57;5.68;;;12.90;99.90;;;;;;5023930;28;20041;-67
2021/10/14 08:04:32;;;;;;;12.43;5.68;;;12.90;99.90;;;;;;5023381;28;20679;-67
2021/10/14 08:06:58;;;;;;;9.75;5.22;;;13.00;99.90;;;;;;5021476;28;20610;-67
2021/10/14 08:09:24;;;;;;;15.63;5.50;;;13.00;99.90;;;;;;5022431;28;20029;-67
2021/10/14 08:11:50;;;;;;;13.55;6.28;;;13.00;99.90;;;;;;5021936;28;20057;-67
2021/10/14 08:14:16;;;;;;;7.38;4.45;;;13.00;99.90;;;;;;5022652;28;20033;-67
2021/10/14 08:16:41;;;;;;;10.32;4.85;;;13.00;99.90;;;;;;5021024;28;20450;-67
2021/10/14 08:19:07;;;;;;;12.82;5.00;;;13.00;99.90;;;;;;5021121;28;20093;-67
2021/10/14 08:21:32;;;;;;;8.85;4.82;;;13.00;99.90;;;;;;5021140;28;20102;-67
2021/10/14 08:23:58;;;;;;;10.88;5.38;;;13.00;99.90;;;;;;5021520;28;20037;-67
2021/10/14 08:26:24;;;;;;;9.93;4.90;;;13.00;99.90;;;;;;5020296;28;20037;-67
2021/10/14 08:28:49;;;;;;;8.32;4.57;;;13.00;99.90;;;;;;5022990;28;20064;-67
2021/10/14 08:31:15;;;;;;;14.50;5.43;;;13.00;99.90;;;;;;5020087;28;20034;-67
2021/10/14 08:33:41;;;;;;;12.93;4.20;;;13.10;99.90;;;;;;5020933;28;20045;-67
2021/10/14 08:36:07;;;;;;;10.60;4.65;;;13.10;99.90;;;;;;5020866;28;20076;-67
2021/10/14 08:38:33;;;;;;;6.15;4.00;;;13.10;99.90;;;;;;5039955;28;20132;-67
2021/10/14 08:40:58;;;;;;;7.13;4.65;;;13.10;99.90;;;;;;5017890;28;20060;-67
2021/10/14 08:43:31;;;;;;;11.35;4.70;;;13.10;99.90;;;;;;5020493;28;20037;-66
2021/10/14 08:45:57;;;;;;;6.32;4.28;;;13.20;99.90;;;;;;5020475;28;20411;-67
2021/10/14 08:48:24;;;;;;;9.38;4.32;;;13.20;99.90;;;;;;5020325;28;20370;-67
2021/10/14 08:50:50;;;;;;;9.10;5.10;;;13.10;99.90;;;;;;5019455;28;20044;-67
2021/10/14 08:53:16;;;;;;;13.55;5.18;;;13.20;99.90;;;;;;5020120;28;20034;-67
2021/10/14 08:55:42;;;;;;;8.23;3.97;;;13.30;99.90;;;;;;5020009;28;20045;-67
2021/10/14 08:58:09;;;;;;;8.77;3.90;;;13.30;99.90;;;;;;5021434;28;20041;-67
2021/10/14 09:00:37;;;;;;;6.53;3.60;;;13.40;99.90;;;;;;5019081;28;20030;-67
2021/10/14 09:03:33;;;;;;;9.75;4.45;;;13.40;99.90;;;;;;5024038;28;20040;-67
2021/10/14 09:05:59;;;;;;;10.00;4.03;;;13.50;99.90;;;;;;5021493;28;20381;-67
2021/10/14 09:08:54;;;;;;;9.25;4.22;;;13.50;99.90;;;;;;5019723;28;20050;-67
2021/10/14 09:11:23;;;;;;;16.15;4.90;;;13.60;99.90;;;;;;5001637;28;20057;-67
2021/10/14 09:14:02;;;;;;;6.82;4.15;;;13.70;99.90;;;;;;5022052;28;20041;-67
2021/10/14 09:16:39;;;;;;;8.50;4.05;;;13.80;99.90;;;;;;5023890;28;20087;-67
2021/10/14 09:19:15;;;;;;;6.93;3.72;;;13.80;99.90;;;;;;5025730;28;20050;-67
2021/10/14 09:21:44;;;;;;;9.52;4.43;;;13.90;99.90;;;;;;5040057;28;20648;-67
2021/10/14 09:24:29;;;;;;;7.53;3.25;;;13.90;99.90;;;;;;5024330;28;20038;-67
2021/10/14 09:26:55;;;;;;;7.38;3.60;;;14.00;99.90;;;;;;5026407;28;20041;-67
2021/10/14 09:29:23;;;;;;;9.65;3.30;;;14.00;99.90;;;;;;5003533;28;20126;-67
2021/10/14 09:31:56;;;;;;;6.47;3.65;;;14.10;99.90;;;;;;5019136;28;20049;-67
2021/10/14 09:34:42;;;;;;;10.00;4.20;;;14.10;99.90;;;;;;5017111;28;20038;-67
2021/10/14 09:37:14;;;;;;;7.57;3.42;;;14.20;99.90;;;;;;5020591;28;20046;-67
2021/10/14 09:39:53;;;;;;;8.23;3.67;;;14.30;99.90;;;;;;5022647;28;20049;-67
2021/10/14 09:42:38;;;;;;;7.18;3.80;;;14.30;99.90;;;;;;5019344;28;20037;-67
2021/10/14 09:45:20;;;;;;;5.28;3.05;;;14.30;99.90;;;;;;5019179;28;20041;-67
2021/10/14 09:48:04;;;;;;;5.70;2.95;;;14.40;99.90;;;;;;5022178;28;20049;-67
2021/10/14 09:50:37;;;;;;;9.60;3.70;;;14.50;99.90;;;;;;5019684;28;20045;-67
2021/10/14 09:53:06;;;;;;;9.25;4.18;;;14.60;99.90;;;;;;5021398;28;20492;-67
2021/10/14 09:55:32;;;;;;;12.68;3.65;;;14.60;99.90;;;;;;5020888;28;20121;-67
2021/10/14 09:57:59;;;;;;;13.52;3.92;;;14.60;99.90;;;;;;5019709;28;20047;-67
2021/10/14 10:00:27;;;;;;;6.03;3.08;;;14.70;99.90;;;;;;5017640;28;20049;-67
2021/10/14 10:02:54;;;;;;;8.05;3.42;;;14.70;99.90;;;;;;5021011;28;20114;-67
2021/10/14 10:05:21;;;;;;;5.88;3.22;;;14.70;99.90;;;;;;5018982;28;20488;-67
2021/10/14 10:07:50;;;;;;;9.93;2.85;;;14.70;99.90;;;;;;5019761;28;20045;-67
2021/10/14 10:10:19;;;;;;;10.82;3.05;;;14.80;99.90;;;;;;5018638;28;20771;-67
2021/10/14 10:12:46;;;;;;;10.77;3.75;;;14.80;99.90;;;;;;5020742;28;20046;-67
2021/10/14 10:15:12;;;;;;;8.57;3.65;;;14.80;99.90;;;;;;5004042;28;20041;-67
2021/10/14 10:17:40;;;;;;;8.60;3.28;;;14.80;99.90;;;;;;5020241;28;20040;-67
2021/10/14 10:20:08;;;;;;;7.30;3.53;;;14.80;99.90;;;;;;5022118;28;20507;-67
2021/10/14 10:22:34;;;;;;;10.90;3.40;;;14.80;99.90;;;;;;5025959;28;20067;-67
2021/10/14 10:25:25;;;;;;;6.97;3.00;;;14.80;99.90;;;;;;5024925;28;20033;-67
2021/10/14 10:27:51;;;;;;;7.30;3.00;;;14.80;99.90;;;;;;5020149;28;20041;-67
2021/10/14 10:30:27;;;;;;;7.95;2.95;;;14.80;99.90;;;;;;5028415;28;20042;-67
2021/10/14 10:32:53;;;;;;;7.70;3.10;;;14.70;99.90;;;;;;5027665;28;20052;-67
2021/10/14 10:35:40;;;;;;;6.45;2.75;;;14.70;99.90;;;;;;5027820;28;20033;-67
2021/10/14 10:38:17;;;;;;;6.90;2.90;;;14.70;99.90;;;;;;5025392;28;20123;-67
2021/10/14 10:40:44;;;;;;;5.90;2.90;;;14.70;99.90;;;;;;5023739;28;20049;-67
2021/10/14 10:43:18;;;;;;;5.50;2.70;;;14.70;99.90;;;;;;5025954;28;20052;-67
2021/10/14 10:45:55;;;;;;;8.10;2.63;;;14.80;99.90;;;;;;5040556;28;20042;-67
2021/10/14 10:48:41;;;;;;;5.93;2.50;;;14.80;99.90;;;;;;5026873;28;20064;-67
2021/10/14 10:51:07;;;;;;;;;;;14.80;99.90;;;;;;5025114;28;20079;-67
2021/10/14 10:53:40;;;;;;;6.93;2.00;;;14.80;99.90;;;;;;5023997;28;20347;-67
2021/10/14 10:56:07;;;;;;;5.20;2.22;;;14.90;99.90;;;;;;5024835;28;20038;-66
2021/10/14 10:58:49;;;;;;;4.57;2.10;;;14.90;99.90;;;;;;5025009;28;20799;-67
2021/10/14 11:01:17;;;;;;;3.08;2.03;;;14.90;99.90;;;;;;5022280;28;20042;-67
2021/10/14 11:03:57;;;;;;;4.65;1.95;;;14.90;99.90;;;;;;5026575;28;20127;-67
2021/10/14 11:06:25;;;;;;;4.13;1.60;;;14.90;99.90;;;;;;5022654;28;20045;-67
2021/10/14 11:08:51;;;;;;;3.00;1.65;;;14.90;99.90;;;;;;5023761;28;20091;-67
2021/10/14 11:11:19;;;;;;;4.75;1.92;;;14.90;99.90;;;;;;5024143;28;20046;-67
2021/10/14 11:13:48;;;;;;;4.32;2.10;;;14.90;99.90;;;;;;5026107;28;20069;-67
2021/10/14 11:16:14;;;;;;;8.20;2.20;;;14.90;99.90;;;;;;5022660;28;20056;-67
2021/10/14 11:18:49;;;;;;;7.75;2.05;;;14.80;99.90;;;;;;5023536;28;20037;-67
2021/10/14 11:21:18;;;;;;;10.77;2.22;;;14.80;99.90;;;;;;5023177;28;20099;-67
2021/10/14 11:23:46;;;;;;;6.30;2.28;;;14.90;99.90;;;;;;5021101;28;20675;-66
2021/10/14 11:26:21;;;;;;;3.40;2.03;;;14.90;99.90;;;;;;5025902;28;20136;-67
2021/10/14 11:28:52;;;;;;;7.43;2.47;;;15.10;99.90;;;;;;5021539;28;20045;-67
2021/10/14 11:31:29;;;;;;;9.35;3.17;;;15.20;99.90;;;;;;5022591;28;20053;-67
2021/10/14 11:33:56;;;;;;;11.00;2.20;;;15.30;99.90;;;;;;5027676;28;20041;-67
2021/10/14 11:36:23;;;;;;;4.72;2.25;;;15.30;99.90;;;;;;5025456;28;20079;-67
2021/10/14 11:39:01;;;;;;;10.75;2.97;;;15.40;99.90;;;;;;5039513;28;20052;-67
2021/10/14 11:41:27;;;;;;;6.28;2.30;;;15.50;99.90;;;;;;5026053;28;20037;-67
2021/10/14 11:43:58;;;;;;;8.07;2.80;;;15.70;99.90;;;;;;5029673;28;20439;-67
2021/10/14 11:46:29;;;;;;;6.78;2.78;;;15.70;99.90;;;;;;5026685;28;20124;-67
2021/10/14 11:49:00;;;;;;;7.95;2.80;;;15.70;99.90;;;;;;5023192;28;20403;-67
2021/10/14 11:51:26;;;;;;;8.07;2.70;;;15.80;99.90;;;;;;5027969;28;20037;-67
2021/10/14 11:54:10;;;;;;;6.53;2.92;;;15.80;99.90;;;;;;5026454;28;20045;-67
2021/10/14 11:56:51;;;;;;;4.80;3.08;;;15.80;99.90;;;;;;5030564;28;20084;-67
2021/10/14 11:59:20;;;;;;;3.35;2.20;;;15.90;99.90;;;;;;5031359;28;20063;-67
2021/10/14 12:01:58;;;;;;;7.82;2.97;;;15.80;99.90;;;;;;5028217;28;20078;-67
2021/10/14 12:04:28;;;;;;;6.22;3.15;;;15.80;99.90;;;;;;5030071;28;20123;-67
2021/10/14 12:06:55;;;;;;;7.03;2.65;;;15.80;99.90;;;;;;5029742;28;20037;-67
2021/10/14 12:09:22;;;;;;;5.88;2.65;;;15.80;99.90;;;;;;5031844;28;20084;-67
2021/10/14 12:11:48;;;;;;;6.95;2.85;;;15.70;99.90;;;;;;5026146;28;20567;-67
2021/10/14 12:14:24;;;;;;;14.77;3.10;;;15.80;99.90;;;;;;5030682;28;20434;-67
2021/10/14 12:17:10;;;;;;;10.88;2.50;;;15.80;99.90;;;;;;5028803;28;20049;-67
2021/10/14 12:19:44;;;;;;;7.85;2.55;;;15.80;99.90;;;;;;5027921;28;20037;-67
2021/10/14 12:22:13;;;;;;;11.20;2.90;;;15.90;99.90;;;;;;5027980;28;20053;-67
2021/10/14 12:24:59;;;;;;;6.72;2.72;;;15.80;99.90;;;;;;5032224;28;20072;-67
2021/10/14 12:27:40;;;;;;;6.45;3.00;;;15.80;99.90;;;;;;5027532;28;20081;-67
2021/10/14 12:30:28;;;;;;;9.32;3.00;;;15.80;99.90;;;;;;5025186;28;20072;-67
2021/10/14 12:33:11;;;;;;;12.27;3.65;;;15.80;99.90;;;;;;5026469;28;20110;-66
2021/10/14 12:35:41;;;;;;;6.32;2.88;;;15.70;99.90;;;;;;5025872;28;20049;-67
2021/10/14 12:38:08;;;;;;;5.82;2.47;;;15.60;99.90;;;;;;5027318;28;20053;-67
2021/10/14 12:40:34;;;;;;;4.78;2.38;;;15.60;99.90;;;;;;5028248;28;20518;-67